createdAt,value
2022-12-01T00:00:42.554Z,18.45
2022-12-01T00:03:09.273Z,16.92
2022-12-01T00:05:36.616Z,17.58
2022-12-01T00:08:05.065Z,18.33
2022-12-01T00:10:33.785Z,16.90
2022-12-01T00:13:03.020Z,16.88
2022-12-01T00:15:32.327Z,17.48
2022-12-01T00:17:59.001Z,17.35
2022-12-01T00:20:25.555Z,18.20
2022-12-01T00:22:52.172Z,16.95
2022-12-01T00:25:19.857Z,17.67
2022-12-01T00:27:50.843Z,17.50
2022-12-01T00:30:18.637Z,17.58
2022-12-01T00:32:46.053Z,16.98
2022-12-01T00:35:13.371Z,17.67
2022-12-01T00:37:39.962Z,18.35
2022-12-01T00:40:10.753Z,18.98
2022-12-01T00:42:37.369Z,18.75
2022-12-01T00:45:05.062Z,21.13
2022-12-01T00:47:31.675Z,22.83
2022-12-01T00:49:58.282Z,19.45
2022-12-01T00:52:24.897Z,17.85
2022-12-01T00:54:51.465Z,18.90
2022-12-01T00:57:18.105Z,17.15
2022-12-01T00:59:44.725Z,17.02
2022-12-01T01:02:11.331Z,18.00
2022-12-01T01:04:38.213Z,18.13
2022-12-01T01:07:04.867Z,17.60
2022-12-01T01:09:32.169Z,17.90
2022-12-01T01:11:58.922Z,17.00
2022-12-01T01:14:25.744Z,17.00
2022-12-01T01:16:52.598Z,15.95
2022-12-01T01:19:19.250Z,16.85
2022-12-01T01:21:45.826Z,16.25
2022-12-01T01:24:14.446Z,17.48
2022-12-01T01:26:41.202Z,16.55
2022-12-01T01:29:07.859Z,16.20
2022-12-01T01:31:35.128Z,16.52
2022-12-01T01:34:02.109Z,17.05
2022-12-01T01:36:29.183Z,17.48
2022-12-01T01:38:55.908Z,17.30
2022-12-01T01:41:23.926Z,16.13
2022-12-01T01:43:59.243Z,17.23
2022-12-01T01:46:29.087Z,16.67
2022-12-01T01:49:05.791Z,15.73
2022-12-01T01:51:52.830Z,16.75
2022-12-01T01:54:21.655Z,16.30
2022-12-01T01:56:50.038Z,17.00
2022-12-01T01:59:22.291Z,17.50
2022-12-01T02:01:55.554Z,15.63
2022-12-01T02:04:24.133Z,17.17
2022-12-01T02:06:50.902Z,16.17
2022-12-01T02:09:17.481Z,16.75
2022-12-01T02:12:11.456Z,16.35
2022-12-01T02:15:10.988Z,16.83
2022-12-01T02:18:11.430Z,16.45
2022-12-01T02:20:45.555Z,18.13
2022-12-01T02:23:30.317Z,17.95
2022-12-01T02:26:33.525Z,16.90
2022-12-01T02:29:12.557Z,18.88
2022-12-01T02:31:44.929Z,18.10
2022-12-01T02:34:23.623Z,17.63
2022-12-01T02:37:07.918Z,17.13
2022-12-01T02:39:42.365Z,17.80
2022-12-01T02:42:48.120Z,18.48
2022-12-01T02:45:23.348Z,17.10
2022-12-01T02:47:52.300Z,16.95
2022-12-01T02:50:20.235Z,17.67
2022-12-01T02:52:48.638Z,18.33
2022-12-01T02:55:15.313Z,17.25
2022-12-01T02:57:41.864Z,17.05
2022-12-01T03:00:13.467Z,18.02
2022-12-01T03:02:49.316Z,17.90
2022-12-01T03:06:10.585Z,17.17
2022-12-01T03:09:07.358Z,16.85
2022-12-01T03:11:56.987Z,17.10
2022-12-01T03:14:45.902Z,17.70
2022-12-01T03:17:19.898Z,17.42
2022-12-01T03:20:08.525Z,17.48
2022-12-01T03:22:44.465Z,17.30
2022-12-01T03:25:13.707Z,16.92
2022-12-01T03:28:00.649Z,17.15
2022-12-01T03:30:35.534Z,16.95
2022-12-01T03:33:09.732Z,16.20
2022-12-01T03:35:50.910Z,16.77
2022-12-01T03:38:29.229Z,16.08
2022-12-01T03:41:05.773Z,17.08
2022-12-01T03:43:36.706Z,16.00
2022-12-01T03:46:14.122Z,16.63
2022-12-01T03:48:41.567Z,16.48
2022-12-01T03:51:39.316Z,17.52
2022-12-01T03:54:45.236Z,16.80
2022-12-01T03:57:16.054Z,16.00
2022-12-01T03:59:45.213Z,16.15
2022-12-01T04:02:12.666Z,16.70
2022-12-01T04:04:39.334Z,16.98
2022-12-01T04:07:07.310Z,15.68
2022-12-01T04:09:33.949Z,15.40
2022-12-01T04:12:18.977Z,16.27
2022-12-01T04:14:45.520Z,15.57
2022-12-01T04:17:12.402Z,17.13
2022-12-01T04:19:39.027Z,16.00
2022-12-01T04:22:05.692Z,15.02
2022-12-01T04:24:32.325Z,14.85
2022-12-01T04:26:58.957Z,16.15
2022-12-01T04:29:25.539Z,16.55
2022-12-01T04:31:52.184Z,17.30
2022-12-01T04:34:18.835Z,15.30
2022-12-01T04:36:45.549Z,16.30
2022-12-01T04:39:12.215Z,16.60
2022-12-01T04:41:38.804Z,17.25
2022-12-01T04:44:05.571Z,16.13
2022-12-01T04:46:32.194Z,16.75
2022-12-01T04:48:58.777Z,17.75
2022-12-01T04:51:25.321Z,15.73
2022-12-01T04:53:51.901Z,17.23
2022-12-01T04:56:19.171Z,16.33
2022-12-01T04:58:46.021Z,16.27
2022-12-01T05:01:14.667Z,17.20
2022-12-01T05:03:43.863Z,17.38
2022-12-01T05:06:16.229Z,16.95
2022-12-01T05:08:42.916Z,16.30
2022-12-01T05:11:12.189Z,17.23
2022-12-01T05:13:40.194Z,15.32
2022-12-01T05:16:22.168Z,17.15
2022-12-01T05:19:12.919Z,16.13
2022-12-01T05:21:41.095Z,16.48
2022-12-01T05:24:08.406Z,16.10
2022-12-01T05:26:35.189Z,16.95
2022-12-01T05:29:02.105Z,16.73
2022-12-01T05:31:28.707Z,17.27
2022-12-01T05:33:55.344Z,15.80
2022-12-01T05:36:22.105Z,16.13
2022-12-01T05:38:48.773Z,15.27
2022-12-01T05:41:15.714Z,16.67
2022-12-01T05:43:42.489Z,16.40
2022-12-01T05:46:09.472Z,15.57
2022-12-01T05:48:36.073Z,15.52
2022-12-01T05:51:14.027Z,16.63
2022-12-01T05:53:40.744Z,16.92
2022-12-01T05:56:08.520Z,17.33
2022-12-01T05:58:35.682Z,17.13
2022-12-01T06:01:02.648Z,16.58
2022-12-01T06:03:29.414Z,16.38
2022-12-01T06:05:56.321Z,17.05
2022-12-01T06:08:23.047Z,16.65
2022-12-01T06:10:49.681Z,16.20
2022-12-01T06:13:16.268Z,17.00
2022-12-01T06:15:43.024Z,15.40
2022-12-01T06:18:10.133Z,15.45
2022-12-01T06:20:36.736Z,14.85
2022-12-01T06:23:04.517Z,15.40
2022-12-01T06:25:31.212Z,15.63
2022-12-01T06:27:58.734Z,14.93
2022-12-01T06:30:25.800Z,15.13
2022-12-01T06:32:52.394Z,15.38
2022-12-01T06:35:19.497Z,15.15
2022-12-01T06:37:46.169Z,16.08
2022-12-01T06:40:13.029Z,14.60
2022-12-01T06:42:39.587Z,16.65
2022-12-01T06:45:06.611Z,14.77
2022-12-01T06:47:33.378Z,14.88
2022-12-01T06:50:00.219Z,14.85
2022-12-01T06:52:26.894Z,14.57
2022-12-01T06:54:53.468Z,14.02
2022-12-01T06:57:20.418Z,13.57
2022-12-01T06:59:47.696Z,13.40
2022-12-01T07:02:14.947Z,12.60
2022-12-01T07:04:41.632Z,12.75
2022-12-01T07:07:08.536Z,11.93
2022-12-01T07:09:35.165Z,11.18
2022-12-01T07:12:01.741Z,10.60
2022-12-01T07:14:28.440Z,10.75
2022-12-01T07:16:55.252Z,11.98
2022-12-01T07:19:22.105Z,10.63
2022-12-01T07:21:48.828Z,11.13
2022-12-01T07:24:16.612Z,11.90
2022-12-01T07:26:44.029Z,11.25
2022-12-01T07:29:10.801Z,12.75
2022-12-01T07:31:38.327Z,12.07
2022-12-01T07:34:05.442Z,13.45
2022-12-01T07:36:32.208Z,12.57
2022-12-01T07:38:58.821Z,11.65
2022-12-01T07:41:25.489Z,13.98
2022-12-01T07:43:52.200Z,14.10
2022-12-01T07:46:23.690Z,13.63
2022-12-01T07:48:51.824Z,15.25
2022-12-01T07:51:18.621Z,12.48
2022-12-01T07:53:47.386Z,14.50
2022-12-01T07:56:14.132Z,12.98
2022-12-01T07:58:41.211Z,11.07
2022-12-01T08:01:10.107Z,14.05
2022-12-01T08:03:37.255Z,13.90
2022-12-01T08:06:05.247Z,11.77
2022-12-01T08:08:33.871Z,11.35
2022-12-01T08:11:06.642Z,12.57
2022-12-01T08:13:33.713Z,12.82
2022-12-01T08:16:07.342Z,13.55
2022-12-01T08:18:35.708Z,14.27
2022-12-01T08:21:02.514Z,17.38
2022-12-01T08:23:29.075Z,15.38
2022-12-01T08:25:57.425Z,16.67
2022-12-01T08:28:24.043Z,16.90
2022-12-01T08:30:50.703Z,16.90
2022-12-01T08:33:17.376Z,18.33
2022-12-01T08:35:44.008Z,18.42
2022-12-01T08:38:10.661Z,17.38
2022-12-01T08:40:37.241Z,17.92
2022-12-01T08:43:04.740Z,19.08
2022-12-01T08:45:31.843Z,19.05
2022-12-01T08:47:59.754Z,20.08
2022-12-01T08:50:27.636Z,19.73
2022-12-01T08:52:54.462Z,19.95
2022-12-01T08:55:21.977Z,19.75
2022-12-01T08:57:48.590Z,19.85
2022-12-01T09:00:15.980Z,20.90
2022-12-01T09:02:42.711Z,21.30
2022-12-01T09:05:09.867Z,22.17
2022-12-01T09:07:36.497Z,20.58
2022-12-01T09:10:03.727Z,19.92
2022-12-01T09:12:30.538Z,22.30
2022-12-01T09:14:57.151Z,20.95
2022-12-01T09:17:23.989Z,21.67
2022-12-01T09:19:50.946Z,22.08
2022-12-01T09:22:17.914Z,21.73
2022-12-01T09:24:44.453Z,22.42
2022-12-01T09:27:11.276Z,21.25
2022-12-01T09:29:37.886Z,19.92
2022-12-01T09:32:04.530Z,21.73
2022-12-01T09:34:32.581Z,22.83
2022-12-01T09:36:59.327Z,22.17
2022-12-01T09:39:26.029Z,21.00
2022-12-01T09:42:33.838Z,21.00
2022-12-01T09:45:04.885Z,20.02
2022-12-01T09:47:37.020Z,20.52
2022-12-01T09:50:25.207Z,21.77
2022-12-01T09:52:57.474Z,21.73
2022-12-01T09:55:25.692Z,22.42
2022-12-01T09:57:55.196Z,23.00
2022-12-01T10:00:24.738Z,21.67
2022-12-01T10:03:15.798Z,22.00
2022-12-01T10:06:26.643Z,22.92
2022-12-01T10:09:12.077Z,22.13
2022-12-01T10:11:41.769Z,20.65
2022-12-01T10:14:19.681Z,21.77
2022-12-01T10:17:03.769Z,21.83
2022-12-01T10:19:43.874Z,22.27
2022-12-01T10:25:36.157Z,22.40
2022-12-01T10:28:25.565Z,22.70
2022-12-01T10:30:53.382Z,24.50
2022-12-01T10:33:19.955Z,23.33
2022-12-01T10:35:46.778Z,23.27
2022-12-01T10:38:27.177Z,23.25
2022-12-01T10:40:55.750Z,23.17
2022-12-01T10:43:36.716Z,23.45
2022-12-01T10:46:19.438Z,23.73
2022-12-01T10:48:54.894Z,23.40
2022-12-01T10:51:22.627Z,23.20
2022-12-01T10:53:50.286Z,23.13
2022-12-01T10:56:19.925Z,22.85
2022-12-01T10:58:56.963Z,22.77
2022-12-01T11:01:34.709Z,23.75
2022-12-01T11:04:22.643Z,23.00
2022-12-01T11:06:51.381Z,23.02
2022-12-01T11:09:28.068Z,23.70
2022-12-01T11:12:05.139Z,22.73
2022-12-01T11:14:54.294Z,24.27
2022-12-01T11:17:31.733Z,23.63
2022-12-01T11:19:59.146Z,23.08
2022-12-01T11:22:34.646Z,23.05
2022-12-01T11:25:04.206Z,23.25
2022-12-01T11:27:46.766Z,23.75
2022-12-01T11:32:58.142Z,23.52
2022-12-01T11:35:36.041Z,24.52
2022-12-01T11:40:54.605Z,23.83
2022-12-01T11:43:29.208Z,23.17
2022-12-01T11:45:58.045Z,23.50
2022-12-01T11:48:36.181Z,21.45
2022-12-01T11:51:10.942Z,22.00
2022-12-01T11:53:40.706Z,21.23
2022-12-01T11:56:25.207Z,22.27
2022-12-01T11:58:59.014Z,20.00
2022-12-01T12:01:48.994Z,20.80
2022-12-01T12:05:02.840Z,19.85
2022-12-01T12:07:32.572Z,18.23
2022-12-01T12:10:19.830Z,18.02
2022-12-01T12:12:59.975Z,18.05
2022-12-01T12:15:45.613Z,18.30
2022-12-01T12:18:21.629Z,17.55
2022-12-01T12:21:14.470Z,17.50
2022-12-01T12:24:06.819Z,18.05
2022-12-01T12:26:43.073Z,17.40
2022-12-01T12:29:19.140Z,16.50
2022-12-01T12:32:08.964Z,17.38
2022-12-01T12:34:49.685Z,16.85
2022-12-01T12:37:24.359Z,15.60
2022-12-01T12:40:06.263Z,16.45
2022-12-01T12:42:35.852Z,16.50
2022-12-01T12:45:21.709Z,17.52
2022-12-01T12:48:03.447Z,16.77
2022-12-01T12:50:54.156Z,16.83
2022-12-01T12:53:24.623Z,17.60
2022-12-01T12:55:56.451Z,16.45
2022-12-01T12:58:29.216Z,17.15
2022-12-01T13:01:11.766Z,17.00
2022-12-01T13:04:16.866Z,17.05
2022-12-01T13:06:58.344Z,15.82
2022-12-01T13:09:42.145Z,15.38
2022-12-01T13:12:16.980Z,15.60
2022-12-01T13:14:48.632Z,15.38
2022-12-01T13:17:18.042Z,15.32
2022-12-01T13:19:48.215Z,15.05
2022-12-01T13:22:18.079Z,15.40
2022-12-01T13:24:45.119Z,15.10
2022-12-01T13:27:13.187Z,14.52
2022-12-01T13:29:46.792Z,15.25
2022-12-01T13:32:40.309Z,15.82
2022-12-01T13:35:30.551Z,14.85
2022-12-01T13:38:16.305Z,15.10
2022-12-01T13:40:43.182Z,15.15
2022-12-01T13:43:27.835Z,16.17
2022-12-01T13:46:02.670Z,14.73
2022-12-01T13:48:54.089Z,15.85
2022-12-01T13:51:20.838Z,15.05
2022-12-01T13:54:25.663Z,16.48
2022-12-01T13:57:08.371Z,17.23
2022-12-01T13:59:41.129Z,14.45
2022-12-01T14:02:20.592Z,15.70
2022-12-01T14:04:48.059Z,15.80
2022-12-01T14:07:35.163Z,15.23
2022-12-01T14:10:17.641Z,15.70
2022-12-01T14:15:24.271Z,14.93
2022-12-01T14:18:08.569Z,16.05
2022-12-01T14:20:43.556Z,15.32
2022-12-01T14:23:30.564Z,15.25
2022-12-01T14:26:05.449Z,14.32
2022-12-01T14:29:03.226Z,14.20
2022-12-01T14:31:33.022Z,15.15
2022-12-01T14:34:13.199Z,14.65
2022-12-01T14:36:48.527Z,13.75
2022-12-01T14:39:30.987Z,14.35
2022-12-01T14:44:44.845Z,14.90
2022-12-01T14:47:11.791Z,15.13
2022-12-01T14:49:49.436Z,14.30
2022-12-01T14:52:35.430Z,13.63
2022-12-01T14:55:06.530Z,14.35
2022-12-01T14:57:42.784Z,13.60
2022-12-01T15:00:17.050Z,14.55
2022-12-01T15:02:48.416Z,15.27
2022-12-01T15:05:18.673Z,13.70
2022-12-01T15:08:06.696Z,13.77
2022-12-01T15:10:53.013Z,13.40
2022-12-01T15:13:22.720Z,14.52
2022-12-01T15:15:55.431Z,13.93
2022-12-01T15:18:26.442Z,13.82
2022-12-01T15:20:59.533Z,14.45
2022-12-01T15:23:26.609Z,13.77
2022-12-01T15:25:53.473Z,14.52
2022-12-01T15:28:22.671Z,14.30
2022-12-01T15:30:54.822Z,13.02
2022-12-01T15:33:28.320Z,14.63
2022-12-01T15:35:58.970Z,12.98
2022-12-01T15:38:35.643Z,11.88
2022-12-01T15:41:33.830Z,12.48
2022-12-01T15:43:56.159Z,13.40
2022-12-01T15:46:34.608Z,12.93
2022-12-01T15:49:20.821Z,14.05
2022-12-01T15:51:49.966Z,13.18
2022-12-01T15:54:27.257Z,14.10
2022-12-01T15:56:55.998Z,13.50
2022-12-01T15:59:31.397Z,13.43
2022-12-01T16:01:58.508Z,14.32
2022-12-01T16:04:32.433Z,13.98
2022-12-01T16:07:08.808Z,13.70
2022-12-01T16:09:36.689Z,11.93
2022-12-01T16:12:20.261Z,12.43
2022-12-01T16:15:06.729Z,12.30
2022-12-01T16:17:47.533Z,11.27
2022-12-01T16:20:42.282Z,11.43
2022-12-01T16:23:18.648Z,10.32
2022-12-01T16:25:47.845Z,9.95
2022-12-01T16:28:22.637Z,9.50
2022-12-01T16:30:50.231Z,9.43
2022-12-01T16:33:20.405Z,10.10
2022-12-01T16:35:47.494Z,12.23
2022-12-01T16:38:23.053Z,13.43
2022-12-01T16:40:55.177Z,12.38
2022-12-01T16:43:27.080Z,11.75
2022-12-01T16:46:03.265Z,11.75
2022-12-01T16:48:31.335Z,12.43
2022-12-01T16:51:02.814Z,12.90
2022-12-01T16:53:29.589Z,12.50
2022-12-01T16:56:00.494Z,12.18
2022-12-01T16:58:27.903Z,12.32
2022-12-01T17:00:54.982Z,12.90
2022-12-01T17:03:24.351Z,11.85
2022-12-01T17:05:52.577Z,12.85
2022-12-01T17:08:19.998Z,12.25
2022-12-01T17:10:50.168Z,12.77
2022-12-01T17:13:18.531Z,12.10
2022-12-01T17:15:49.158Z,13.50
2022-12-01T17:18:17.848Z,12.35
2022-12-01T17:20:45.026Z,12.52
2022-12-01T17:23:12.035Z,12.90
2022-12-01T17:25:42.394Z,11.73
2022-12-01T17:28:09.161Z,12.48
2022-12-01T17:30:36.684Z,12.13
2022-12-01T17:33:03.667Z,11.95
2022-12-01T17:35:30.510Z,11.30
2022-12-01T17:37:57.352Z,11.55
2022-12-01T17:40:24.098Z,11.93
2022-12-01T17:42:51.207Z,14.45
2022-12-01T17:45:18.978Z,13.85
2022-12-01T17:47:45.849Z,16.02
2022-12-01T17:50:12.694Z,11.93
2022-12-01T17:52:39.406Z,10.23
2022-12-01T17:55:06.890Z,10.07
2022-12-01T17:57:34.259Z,9.57
2022-12-01T18:00:03.957Z,10.50
2022-12-01T18:02:30.745Z,10.57
2022-12-01T18:04:57.623Z,9.82
2022-12-01T18:07:24.384Z,11.13
2022-12-01T18:09:51.194Z,16.27
2022-12-01T18:12:17.964Z,13.80
2022-12-01T18:14:44.757Z,14.45
2022-12-01T18:17:11.496Z,12.38
2022-12-01T18:19:38.239Z,11.52
2022-12-01T18:22:04.861Z,10.70
2022-12-01T18:24:31.567Z,13.02
2022-12-01T18:26:58.510Z,17.67
2022-12-01T18:29:28.908Z,19.55
2022-12-01T18:31:59.973Z,18.55
2022-12-01T18:34:29.587Z,13.43
2022-12-01T18:36:56.941Z,15.40
2022-12-01T18:39:23.991Z,14.60
2022-12-01T18:41:50.831Z,12.15
2022-12-01T18:44:17.584Z,11.73
2022-12-01T18:46:44.630Z,11.20
2022-12-01T18:49:12.588Z,12.05
2022-12-01T18:51:40.249Z,12.82
2022-12-01T18:54:09.047Z,11.40
2022-12-01T18:56:36.056Z,11.80
2022-12-01T18:59:06.872Z,14.00
2022-12-01T19:01:40.404Z,11.90
2022-12-01T19:04:08.444Z,10.88
2022-12-01T19:06:37.641Z,10.85
2022-12-01T19:09:06.904Z,10.15
2022-12-01T19:11:33.663Z,10.77
2022-12-01T19:14:00.645Z,10.57
2022-12-01T19:16:27.574Z,10.50
2022-12-01T19:18:54.362Z,10.45
2022-12-01T19:21:21.053Z,11.18
2022-12-01T19:23:48.205Z,11.07
2022-12-01T19:26:17.860Z,10.65
2022-12-01T19:28:45.816Z,10.25
2022-12-01T19:31:15.396Z,10.38
2022-12-01T19:33:42.791Z,9.77
2022-12-01T19:36:15.682Z,11.38
2022-12-01T19:38:42.980Z,10.38
2022-12-01T19:41:10.386Z,9.82
2022-12-01T19:43:38.202Z,10.35
2022-12-01T19:46:11.771Z,11.70
2022-12-01T19:48:38.861Z,10.48
2022-12-01T19:51:06.308Z,12.13
2022-12-01T19:53:34.256Z,12.27
2022-12-01T19:56:05.423Z,11.68
2022-12-01T19:58:35.654Z,12.00
2022-12-01T20:01:07.162Z,11.55
2022-12-01T20:03:34.450Z,10.50
2022-12-01T20:06:06.580Z,10.95
2022-12-01T20:08:35.927Z,12.20
2022-12-01T20:11:04.399Z,12.23
2022-12-01T20:13:33.550Z,12.25
2022-12-01T20:16:12.448Z,12.43
2022-12-01T20:18:40.288Z,12.35
2022-12-01T20:21:18.138Z,12.27
2022-12-01T20:23:50.621Z,12.05
2022-12-01T20:28:49.213Z,13.13
2022-12-01T20:31:21.102Z,13.50
2022-12-01T20:33:48.585Z,12.75
2022-12-01T20:36:16.081Z,12.65
2022-12-01T20:38:42.935Z,15.40
2022-12-01T20:41:10.699Z,14.10
2022-12-01T20:43:38.001Z,16.17
2022-12-01T20:46:05.444Z,15.38
2022-12-01T20:48:32.966Z,15.93
2022-12-01T20:51:01.386Z,14.27
2022-12-01T20:53:28.246Z,14.70
2022-12-01T20:55:55.764Z,18.50
2022-12-01T20:58:22.595Z,21.10
2022-12-01T21:00:49.399Z,16.73
2022-12-01T21:03:16.174Z,14.38
2022-12-01T21:05:44.248Z,16.60
2022-12-01T21:08:13.089Z,15.23
2022-12-01T21:10:45.225Z,14.73
2022-12-01T21:13:35.914Z,13.98
2022-12-01T21:16:07.110Z,14.65
2022-12-01T21:18:55.300Z,12.82
2022-12-01T21:21:30.381Z,13.90
2022-12-01T21:24:15.656Z,14.13
2022-12-01T21:27:06.159Z,13.50
2022-12-01T21:29:45.334Z,12.82
2022-12-01T21:32:33.739Z,13.55
2022-12-01T21:35:24.920Z,15.95
2022-12-01T21:37:58.239Z,15.85
2022-12-01T21:40:26.888Z,16.17
2022-12-01T21:42:53.769Z,16.33
2022-12-01T21:45:31.111Z,18.52
2022-12-01T21:48:01.605Z,16.77
2022-12-01T21:50:28.380Z,17.02
2022-12-01T21:52:55.377Z,16.30
2022-12-01T21:55:26.059Z,16.20
2022-12-01T21:57:54.025Z,17.60
2022-12-01T22:00:27.013Z,17.70
2022-12-01T22:03:09.271Z,17.35
2022-12-01T22:06:01.091Z,17.58
2022-12-01T22:08:35.567Z,16.88
2022-12-01T22:11:13.984Z,18.35
2022-12-01T22:13:53.266Z,18.70
2022-12-01T22:16:30.414Z,20.52
2022-12-01T22:18:59.854Z,19.77
2022-12-01T22:21:40.216Z,17.98
2022-12-01T22:24:09.671Z,19.15
2022-12-01T22:26:38.929Z,19.50
2022-12-01T22:29:39.143Z,18.48
2022-12-01T22:32:14.947Z,19.20
2022-12-01T22:34:51.077Z,19.85
2022-12-01T22:37:23.845Z,19.88
2022-12-01T22:39:55.392Z,20.58
2022-12-01T22:42:33.243Z,18.93
2022-12-01T22:45:14.689Z,19.45
2022-12-01T22:47:41.471Z,20.10
2022-12-01T22:50:26.589Z,20.00
2022-12-01T22:52:55.696Z,21.13
2022-12-01T22:55:22.485Z,21.00
2022-12-01T22:57:49.319Z,21.88
2022-12-01T23:00:18.955Z,19.17
2022-12-01T23:02:48.161Z,20.58
2022-12-01T23:05:23.313Z,20.40
2022-12-01T23:07:51.335Z,22.38
2022-12-01T23:10:22.069Z,20.52
2022-12-01T23:12:51.265Z,20.85
2022-12-01T23:15:39.640Z,22.67
2022-12-01T23:18:21.766Z,21.83
2022-12-01T23:20:59.581Z,23.73
2022-12-01T23:23:28.876Z,23.85
2022-12-01T23:25:56.161Z,23.05
2022-12-01T23:28:24.097Z,22.63
2022-12-01T23:30:58.041Z,22.52
2022-12-01T23:33:34.814Z,23.30
2022-12-01T23:36:20.354Z,23.25
2022-12-01T23:38:54.109Z,23.77
2022-12-01T23:41:26.173Z,23.65
2022-12-01T23:43:55.285Z,23.10
2022-12-01T23:46:24.209Z,24.95
2022-12-01T23:49:03.395Z,26.20
2022-12-01T23:51:35.358Z,24.60
2022-12-01T23:54:10.193Z,26.85
2022-12-01T23:56:38.052Z,25.27
2022-12-01T23:59:10.029Z,24.90
